createdAt,value
2022-08-22T00:01:45.985Z,6.80
2022-08-22T00:03:00.886Z,4.25
2022-08-22T00:03:08.939Z,4.93
2022-08-22T00:04:47.543Z,7.15
2022-08-22T00:07:57.815Z,6.28
2022-08-22T00:11:16.529Z,6.45
2022-08-22T00:14:04.181Z,7.05
2022-08-22T00:17:13.237Z,7.13
2022-08-22T00:19:56.368Z,6.93
2022-08-22T00:22:51.677Z,7.43
2022-08-22T00:25:35.930Z,7.65
2022-08-22T00:28:31.877Z,7.00
2022-08-22T00:31:16.798Z,7.25
2022-08-22T00:34:16.766Z,6.82
2022-08-22T00:36:52.437Z,6.95
2022-08-22T00:39:31.542Z,6.88
2022-08-22T00:42:16.211Z,7.40
2022-08-22T00:45:26.102Z,7.03
2022-08-22T00:48:49.281Z,7.57
2022-08-22T00:51:58.710Z,7.82
2022-08-22T00:55:01.801Z,7.13
2022-08-22T00:57:53.957Z,7.72
2022-08-22T01:00:30.242Z,7.65
2022-08-22T01:03:46.754Z,8.05
2022-08-22T01:06:23.552Z,7.70
2022-08-22T01:09:17.801Z,8.18
2022-08-22T01:12:14.712Z,8.18
2022-08-22T01:15:05.276Z,7.45
2022-08-22T01:17:45.075Z,7.43
2022-08-22T01:21:08.658Z,8.35
2022-08-22T01:24:24.165Z,8.00
2022-08-22T01:27:08.682Z,8.27
2022-08-22T01:33:11.651Z,7.18
2022-08-22T01:36:16.696Z,8.55
2022-08-22T01:39:11.395Z,7.70
2022-08-22T01:42:12.680Z,7.85
2022-08-22T01:45:14.064Z,7.70
2022-08-22T01:47:54.252Z,7.43
2022-08-22T01:50:53.748Z,7.93
2022-08-22T01:53:54.460Z,7.53
2022-08-22T01:56:25.803Z,7.90
2022-08-22T01:59:02.891Z,7.55
2022-08-22T02:01:44.891Z,7.90
2022-08-22T02:04:29.399Z,7.57
2022-08-22T02:07:24.371Z,7.63
2022-08-22T02:10:40.209Z,7.78
2022-08-22T02:13:48.907Z,7.70
2022-08-22T02:16:40.860Z,7.95
2022-08-22T02:19:14.893Z,7.93
2022-08-22T02:22:18.058Z,7.15
2022-08-22T02:25:16.700Z,7.18
2022-08-22T02:28:03.982Z,8.48
2022-08-22T02:31:00.798Z,7.63
2022-08-22T02:33:42.649Z,8.18
2022-08-22T02:36:34.254Z,7.88
2022-08-22T02:39:43.209Z,7.68
2022-08-22T02:42:29.499Z,8.60
2022-08-22T02:45:21.913Z,7.55
2022-08-22T02:48:14.739Z,8.38
2022-08-22T02:51:20.404Z,7.20
2022-08-22T02:54:03.437Z,8.00
2022-08-22T02:57:02.563Z,7.60
2022-08-22T02:59:39.083Z,8.40
2022-08-22T03:02:36.738Z,7.93
2022-08-22T03:05:35.402Z,8.23
2022-08-22T03:08:47.374Z,8.35
2022-08-22T03:11:30.900Z,9.30
2022-08-22T03:14:15.067Z,8.80
2022-08-22T03:17:36.227Z,9.43
2022-08-22T03:20:37.128Z,8.77
2022-08-22T03:23:13.966Z,8.85
2022-08-22T03:25:51.344Z,7.45
2022-08-22T03:28:32.530Z,7.03
2022-08-22T03:31:08.794Z,7.82
2022-08-22T03:33:35.844Z,8.25
2022-08-22T03:36:25.816Z,8.60
2022-08-22T03:39:17.792Z,8.13
2022-08-22T03:42:43.174Z,8.50
2022-08-22T03:46:17.804Z,7.03
2022-08-22T03:49:32.834Z,8.10
2022-08-22T03:52:58.098Z,8.75
2022-08-22T03:56:18.754Z,7.80
2022-08-22T03:59:17.947Z,8.13
2022-08-22T04:02:42.793Z,8.93
2022-08-22T04:05:10.563Z,8.25
2022-08-22T04:08:26.113Z,7.50
2022-08-22T04:11:08.304Z,8.68
2022-08-22T04:14:08.926Z,7.78
2022-08-22T04:17:25.475Z,7.85
2022-08-22T04:20:04.818Z,8.13
2022-08-22T04:23:19.490Z,8.60
2022-08-22T04:25:55.180Z,7.55
2022-08-22T04:28:43.224Z,7.53
2022-08-22T04:31:18.862Z,7.88
2022-08-22T04:34:01.559Z,8.43
2022-08-22T04:36:54.054Z,8.70
2022-08-22T04:39:32.952Z,7.53
2022-08-22T04:42:38.384Z,7.55
2022-08-22T04:45:17.060Z,8.20
2022-08-22T04:47:54.597Z,8.85
2022-08-22T04:50:38.004Z,7.57
2022-08-22T04:54:00.020Z,7.13
2022-08-22T04:57:12.882Z,6.50
2022-08-22T04:59:40.344Z,7.35
2022-08-22T05:02:12.025Z,7.68
2022-08-22T05:04:44.275Z,7.28
2022-08-22T05:07:26.061Z,7.63
2022-08-22T05:10:22.258Z,7.63
2022-08-22T05:13:19.594Z,7.53
2022-08-22T05:15:52.068Z,7.43
2022-08-22T05:18:32.210Z,8.02
2022-08-22T05:21:05.072Z,6.78
2022-08-22T05:23:59.016Z,7.10
2022-08-22T05:26:29.130Z,7.25
2022-08-22T05:29:07.954Z,7.07
2022-08-22T05:31:43.608Z,7.00
2022-08-22T05:34:41.288Z,6.97
2022-08-22T05:37:19.233Z,6.75
2022-08-22T05:39:51.753Z,6.85
2022-08-22T05:42:30.070Z,6.35
2022-08-22T05:44:57.432Z,6.13
2022-08-22T05:47:32.751Z,6.22
2022-08-22T05:50:22.910Z,5.93
2022-08-22T05:53:16.004Z,6.07
2022-08-22T05:56:41.384Z,6.38
2022-08-22T05:59:26.122Z,6.15
2022-08-22T06:02:21.128Z,5.85
2022-08-22T06:04:54.815Z,6.00
2022-08-22T06:07:46.497Z,5.38
2022-08-22T06:10:51.298Z,5.78
2022-08-22T06:13:32.292Z,5.72
2022-08-22T06:16:16.961Z,5.53
2022-08-22T06:18:45.586Z,5.75
2022-08-22T06:21:18.278Z,5.88
2022-08-22T06:24:00.070Z,6.90
2022-08-22T06:26:35.622Z,5.75
2022-08-22T06:29:05.868Z,6.03
2022-08-22T06:31:55.254Z,5.97
2022-08-22T06:34:33.464Z,5.45
2022-08-22T06:37:08.244Z,5.13
2022-08-22T06:39:40.176Z,5.13
2022-08-22T06:42:28.317Z,6.05
2022-08-22T06:45:23.110Z,4.80
2022-08-22T06:48:15.761Z,5.25
2022-08-22T06:50:45.518Z,4.72
2022-08-22T06:53:45.917Z,5.32
2022-08-22T06:56:23.954Z,5.15
2022-08-22T06:58:56.579Z,5.25
2022-08-22T07:01:39.908Z,5.30
2022-08-22T07:04:10.332Z,4.50
2022-08-22T07:06:50.402Z,5.57
2022-08-22T07:09:27.694Z,4.95
2022-08-22T07:12:00.352Z,6.10
2022-08-22T07:14:41.535Z,5.60
2022-08-22T07:17:16.389Z,5.45
2022-08-22T07:20:13.378Z,5.63
2022-08-22T07:22:40.407Z,5.57
2022-08-22T07:25:13.755Z,5.47
2022-08-22T07:28:36.923Z,6.25
2022-08-22T07:31:27.141Z,6.00
2022-08-22T07:34:14.967Z,5.75
2022-08-22T07:37:25.519Z,5.60
2022-08-22T07:40:16.155Z,8.13
2022-08-22T07:43:27.893Z,6.93
2022-08-22T07:46:27.438Z,6.50
2022-08-22T07:49:22.274Z,6.30
2022-08-22T07:52:00.441Z,6.00
2022-08-22T07:54:59.472Z,5.47
2022-08-22T07:57:39.482Z,5.65
2022-08-22T08:00:18.997Z,6.80
2022-08-22T08:02:54.197Z,5.60
2022-08-22T08:05:27.515Z,6.07
2022-08-22T08:07:56.754Z,5.88
2022-08-22T08:10:32.957Z,5.30
2022-08-22T08:13:09.317Z,6.20
2022-08-22T08:15:39.395Z,5.72
2022-08-22T08:18:14.329Z,6.15
2022-08-22T08:20:41.914Z,6.18
2022-08-22T08:23:12.017Z,6.20
2022-08-22T08:26:12.201Z,6.45
2022-08-22T08:28:47.813Z,5.97
2022-08-22T08:31:37.992Z,4.78
2022-08-22T08:34:22.551Z,6.10
2022-08-22T08:36:56.469Z,5.82
2022-08-22T08:39:49.889Z,5.45
2022-08-22T08:42:58.291Z,5.28
2022-08-22T08:46:09.214Z,5.90
2022-08-22T08:48:57.303Z,5.22
2022-08-22T08:52:00.898Z,6.38
2022-08-22T08:54:55.746Z,5.22
2022-08-22T08:57:33.945Z,5.88
2022-08-22T09:00:45.825Z,5.60
2022-08-22T09:03:55.107Z,5.82
2022-08-22T09:06:43.147Z,6.13
2022-08-22T09:09:35.623Z,5.90
2022-08-22T09:12:57.066Z,4.78
2022-08-22T09:16:09.946Z,5.50
2022-08-22T09:19:02.671Z,5.53
2022-08-22T09:22:16.564Z,5.93
2022-08-22T09:25:19.101Z,5.18
2022-08-22T09:28:32.368Z,5.45
2022-08-22T09:31:33.220Z,5.38
2022-08-22T09:34:45.315Z,5.38
2022-08-22T09:38:01.083Z,5.00
2022-08-22T09:41:14.075Z,5.22
2022-08-22T09:44:01.542Z,6.15
2022-08-22T09:46:48.258Z,6.35
2022-08-22T09:49:38.796Z,4.50
2022-08-22T09:52:49.267Z,5.00
2022-08-22T09:55:54.501Z,4.60
2022-08-22T09:58:58.399Z,4.70
2022-08-22T10:01:32.783Z,5.22
2022-08-22T10:04:21.468Z,5.20
2022-08-22T10:07:18.968Z,4.68
2022-08-22T10:10:24.311Z,3.88
2022-08-22T10:13:43.727Z,5.22
2022-08-22T10:17:05.570Z,4.40
2022-08-22T10:19:41.810Z,4.13
2022-08-22T10:22:47.063Z,4.20
2022-08-22T10:25:32.519Z,5.00
2022-08-22T10:28:13.685Z,4.63
2022-08-22T10:31:24.139Z,4.35
2022-08-22T10:34:20.321Z,4.55
2022-08-22T10:37:30.637Z,4.18
2022-08-22T10:40:18.496Z,4.13
2022-08-22T10:42:59.855Z,4.40
2022-08-22T10:45:36.574Z,4.20
2022-08-22T10:48:08.830Z,4.50
2022-08-22T10:50:43.841Z,4.35
2022-08-22T10:53:38.713Z,3.83
2022-08-22T10:56:43.887Z,4.30
2022-08-22T10:59:51.823Z,4.47
2022-08-22T11:03:21.847Z,4.18
2022-08-22T11:05:53.422Z,4.32
2022-08-22T11:09:12.365Z,4.05
2022-08-22T11:11:47.613Z,4.90
2022-08-22T11:14:58.318Z,5.45
2022-08-22T11:18:03.403Z,3.97
2022-08-22T11:21:01.811Z,5.03
2022-08-22T11:23:37.822Z,4.60
2022-08-22T11:26:54.617Z,4.32
2022-08-22T11:29:49.864Z,4.75
2022-08-22T11:33:02.618Z,7.53
2022-08-22T11:35:47.860Z,4.72
2022-08-22T11:38:49.263Z,5.50
2022-08-22T11:41:42.522Z,4.78
2022-08-22T11:44:20.259Z,4.65
2022-08-22T11:46:50.977Z,4.78
2022-08-22T11:49:52.420Z,4.43
2022-08-22T11:52:38.103Z,5.82
2022-08-22T11:55:32.741Z,4.70
2022-08-22T11:58:28.773Z,5.25
2022-08-22T12:01:18.578Z,5.40
2022-08-22T12:04:09.726Z,5.43
2022-08-22T12:07:09.332Z,4.93
2022-08-22T12:09:59.674Z,5.40
2022-08-22T12:12:49.584Z,5.00
2022-08-22T12:15:33.366Z,4.78
2022-08-22T12:18:21.217Z,5.15
2022-08-22T12:21:18.728Z,4.57
2022-08-22T12:23:57.386Z,4.57
2022-08-22T12:26:45.263Z,5.07
2022-08-22T12:29:33.595Z,4.85
2022-08-22T12:32:50.528Z,4.75
2022-08-22T12:35:38.156Z,4.93
2022-08-22T12:38:36.031Z,4.57
2022-08-22T12:42:07.796Z,4.78
2022-08-22T12:45:05.794Z,4.78
2022-08-22T12:47:54.304Z,4.63
2022-08-22T12:50:44.772Z,4.55
2022-08-22T12:53:47.857Z,5.40
2022-08-22T12:56:41.175Z,4.57
2022-08-22T12:59:40.580Z,5.85
2022-08-22T13:02:28.583Z,5.05
2022-08-22T13:05:10.825Z,4.47
2022-08-22T13:07:42.729Z,5.15
2022-08-22T13:10:17.601Z,5.45
2022-08-22T13:12:52.543Z,4.72
2022-08-22T13:15:22.184Z,4.63
2022-08-22T13:17:55.489Z,4.55
2022-08-22T13:20:33.154Z,5.40
2022-08-22T13:23:11.052Z,4.55
2022-08-22T13:26:16.370Z,4.95
2022-08-22T13:29:27.482Z,4.50
2022-08-22T13:32:09.101Z,5.15
2022-08-22T13:34:44.722Z,5.78
2022-08-22T13:37:37.121Z,4.80
2022-08-22T13:40:11.531Z,5.15
2022-08-22T13:42:54.158Z,5.70
2022-08-22T13:45:28.771Z,4.85
2022-08-22T13:48:08.647Z,4.28
2022-08-22T13:51:04.292Z,5.13
2022-08-22T13:53:48.968Z,4.70
2022-08-22T13:56:39.181Z,4.65
2022-08-22T13:59:52.433Z,4.38
2022-08-22T14:02:43.240Z,5.05
2022-08-22T14:05:31.011Z,5.55
2022-08-22T14:08:25.837Z,5.60
2022-08-22T14:11:12.120Z,5.32
2022-08-22T14:13:56.693Z,4.90
2022-08-22T14:16:39.047Z,4.97
2022-08-22T14:19:14.113Z,4.43
2022-08-22T14:21:59.246Z,5.15
2022-08-22T14:24:45.433Z,5.22
2022-08-22T14:27:33.183Z,5.10
2022-08-22T14:30:23.539Z,5.43
2022-08-22T14:33:04.404Z,5.57
2022-08-22T14:35:42.213Z,5.43
2022-08-22T14:38:30.495Z,5.00
2022-08-22T14:41:52.797Z,4.88
2022-08-22T14:44:50.423Z,4.82
2022-08-22T14:47:55.320Z,5.30
2022-08-22T14:51:06.327Z,5.38
2022-08-22T14:53:38.867Z,5.10
2022-08-22T14:56:23.915Z,5.53
2022-08-22T14:58:59.529Z,5.90
2022-08-22T15:01:32.621Z,7.05
2022-08-22T15:04:19.438Z,5.00
2022-08-22T15:06:59.020Z,6.10
2022-08-22T15:09:32.064Z,5.07
2022-08-22T15:12:01.686Z,5.35
2022-08-22T15:14:45.354Z,4.38
2022-08-22T15:17:45.299Z,5.40
2022-08-22T15:20:36.399Z,5.25
2022-08-22T15:23:23.516Z,5.00
2022-08-22T15:26:13.235Z,5.13
2022-08-22T15:28:52.592Z,6.18
2022-08-22T15:31:22.222Z,7.93
2022-08-22T15:33:50.756Z,6.00
2022-08-22T15:36:22.539Z,5.35
2022-08-22T15:38:54.380Z,5.45
2022-08-22T15:41:36.170Z,4.88
2022-08-22T15:44:32.548Z,5.70
2022-08-22T15:47:26.651Z,5.47
2022-08-22T15:50:02.226Z,5.40
2022-08-22T15:53:04.667Z,5.13
2022-08-22T15:55:34.238Z,5.03
2022-08-22T15:58:08.998Z,5.03
2022-08-22T16:01:02.798Z,5.75
2022-08-22T16:03:34.134Z,5.75
2022-08-22T16:06:09.213Z,5.82
2022-08-22T16:08:36.162Z,5.22
2022-08-22T16:11:03.020Z,5.85
2022-08-22T16:13:29.957Z,5.18
2022-08-22T16:16:13.602Z,5.18
2022-08-22T16:18:40.530Z,5.68
2022-08-22T16:21:22.260Z,6.03
2022-08-22T16:23:56.345Z,5.63
2022-08-22T16:26:29.608Z,5.70
2022-08-22T16:28:59.607Z,9.55
2022-08-22T16:31:48.162Z,7.63
2022-08-22T16:34:18.278Z,6.35
2022-08-22T16:37:03.283Z,6.10
2022-08-22T16:39:43.566Z,5.65
2022-08-22T16:42:13.419Z,5.47
2022-08-22T16:44:46.841Z,5.72
2022-08-22T16:47:32.791Z,7.00
2022-08-22T16:50:27.033Z,5.38
2022-08-22T16:53:03.645Z,5.90
2022-08-22T16:55:30.519Z,5.63
2022-08-22T16:58:56.223Z,5.03
2022-08-22T17:01:49.748Z,5.15
2022-08-22T17:04:34.521Z,4.72
2022-08-22T17:07:43.158Z,5.28
2022-08-22T17:10:40.228Z,5.13
2022-08-22T17:13:12.863Z,5.43
2022-08-22T17:16:14.062Z,5.43
2022-08-22T17:19:30.424Z,5.10
2022-08-22T17:22:12.496Z,4.63
2022-08-22T17:25:07.544Z,5.10
2022-08-22T17:27:42.548Z,4.95
2022-08-22T17:30:29.042Z,4.80
2022-08-22T17:33:35.276Z,5.43
2022-08-22T17:36:40.558Z,4.80
2022-08-22T17:39:38.120Z,5.15
2022-08-22T17:42:39.130Z,4.93
2022-08-22T17:45:30.268Z,5.50
2022-08-22T17:48:12.490Z,6.85
2022-08-22T17:50:57.441Z,7.18
2022-08-22T17:53:58.238Z,7.25
2022-08-22T17:56:48.497Z,5.50
2022-08-22T17:59:57.764Z,6.68
2022-08-22T18:02:42.925Z,5.65
2022-08-22T18:05:59.866Z,5.13
2022-08-22T18:09:15.421Z,5.40
2022-08-22T18:12:07.934Z,5.22
2022-08-22T18:15:19.580Z,5.70
2022-08-22T18:18:30.341Z,6.18
2022-08-22T18:21:07.126Z,4.82
2022-08-22T18:23:59.377Z,5.80
2022-08-22T18:26:55.914Z,5.93
2022-08-22T18:29:27.369Z,6.10
2022-08-22T18:32:11.271Z,6.20
2022-08-22T18:34:51.660Z,5.78
2022-08-22T18:37:48.673Z,7.70
2022-08-22T18:40:36.761Z,6.35
2022-08-22T18:43:13.935Z,6.35
2022-08-22T18:45:46.958Z,5.65
2022-08-22T18:48:29.551Z,5.93
2022-08-22T18:51:24.795Z,6.40
2022-08-22T18:54:42.011Z,6.35
2022-08-22T18:58:03.207Z,6.47
2022-08-22T19:01:07.924Z,6.47
2022-08-22T19:04:05.231Z,6.68
2022-08-22T19:06:41.315Z,6.15
2022-08-22T19:09:41.127Z,6.93
2022-08-22T19:12:34.124Z,6.93
2022-08-22T19:15:42.785Z,6.63
2022-08-22T19:18:51.914Z,7.00
2022-08-22T19:21:46.305Z,6.72
2022-08-22T19:24:29.432Z,6.93
2022-08-22T19:27:12.421Z,6.97
2022-08-22T19:29:39.857Z,6.05
2022-08-22T19:32:13.103Z,6.88
2022-08-22T19:34:46.762Z,7.85
2022-08-22T19:37:33.179Z,6.88
2022-08-22T19:40:05.683Z,6.95
2022-08-22T19:42:36.846Z,6.15
2022-08-22T19:45:18.429Z,7.03
2022-08-22T19:47:57.441Z,6.25
2022-08-22T19:50:31.721Z,6.47
2022-08-22T19:53:17.808Z,6.95
2022-08-22T19:56:25.605Z,7.93
2022-08-22T19:59:24.031Z,10.93
2022-08-22T20:02:01.479Z,7.38
2022-08-22T20:04:55.287Z,7.30
2022-08-22T20:08:06.849Z,7.20
2022-08-22T20:11:15.541Z,7.38
2022-08-22T20:13:43.032Z,6.60
2022-08-22T20:16:44.075Z,8.05
2022-08-22T20:19:11.925Z,7.03
2022-08-22T20:21:49.365Z,7.45
2022-08-22T20:24:55.253Z,7.72
2022-08-22T20:27:27.972Z,7.07
2022-08-22T20:30:27.459Z,6.68
2022-08-22T20:33:07.801Z,6.90
2022-08-22T20:35:51.280Z,6.97
2022-08-22T20:38:25.740Z,7.05
2022-08-22T20:41:14.340Z,6.75
2022-08-22T20:43:54.007Z,7.13
2022-08-22T20:47:19.443Z,7.63
2022-08-22T20:49:56.383Z,7.05
2022-08-22T20:52:32.790Z,7.70
2022-08-22T20:55:13.264Z,7.15
2022-08-22T20:57:55.516Z,7.07
2022-08-22T21:00:40.065Z,7.40
2022-08-22T21:03:32.779Z,7.22
2022-08-22T21:06:12.261Z,6.85
2022-08-22T21:08:40.572Z,7.10
2022-08-22T21:11:27.675Z,7.03
2022-08-22T21:13:55.587Z,8.52
2022-08-22T21:16:33.545Z,6.90
2022-08-22T21:19:04.085Z,7.07
2022-08-22T21:21:34.464Z,7.10
2022-08-22T21:24:07.858Z,7.38
2022-08-22T21:26:56.686Z,7.13
2022-08-22T21:29:32.756Z,6.70
2022-08-22T21:32:26.416Z,7.38
2022-08-22T21:34:53.990Z,8.18
2022-08-22T21:37:38.842Z,7.38
2022-08-22T21:40:22.748Z,8.40
2022-08-22T21:43:11.304Z,7.72
2022-08-22T21:45:38.335Z,8.48
2022-08-22T21:48:33.360Z,7.43
2022-08-22T21:51:41.970Z,7.25
2022-08-22T21:54:29.880Z,7.65
2022-08-22T21:57:09.010Z,8.40
2022-08-22T21:59:52.198Z,8.95
2022-08-22T22:02:34.223Z,7.93
2022-08-22T22:05:12.951Z,8.35
2022-08-22T22:07:43.697Z,7.68
2022-08-22T22:10:17.155Z,7.93
2022-08-22T22:12:46.922Z,8.85
2022-08-22T22:15:19.252Z,7.65
2022-08-22T22:17:46.364Z,7.75
2022-08-22T22:20:16.267Z,7.82
2022-08-22T22:22:46.637Z,8.68
2022-08-22T22:25:39.623Z,8.05
2022-08-22T22:28:21.480Z,7.75
2022-08-22T22:30:51.479Z,8.82
2022-08-22T22:33:26.384Z,7.68
2022-08-22T22:35:57.183Z,8.32
2022-08-22T22:38:24.545Z,8.35
2022-08-22T22:40:53.331Z,7.30
2022-08-22T22:43:20.461Z,8.02
2022-08-22T22:45:47.313Z,8.73
2022-08-22T22:48:24.142Z,7.95
2022-08-22T22:50:53.101Z,7.43
2022-08-22T22:53:21.475Z,7.50
2022-08-22T22:56:10.796Z,8.45
2022-08-22T22:58:39.144Z,7.72
2022-08-22T23:01:17.675Z,8.73
2022-08-22T23:03:45.542Z,7.63
2022-08-22T23:06:18.773Z,8.20
2022-08-22T23:08:46.115Z,8.55
2022-08-22T23:11:20.139Z,8.88
2022-08-22T23:13:48.521Z,8.23
2022-08-22T23:16:23.275Z,7.88
2022-08-22T23:18:50.839Z,8.20
2022-08-22T23:21:29.784Z,9.60
2022-08-22T23:23:59.485Z,9.00
2022-08-22T23:26:27.714Z,8.40
2022-08-22T23:28:55.684Z,7.05
2022-08-22T23:31:32.942Z,8.10
2022-08-22T23:34:11.497Z,9.07
2022-08-22T23:36:42.324Z,9.13
2022-08-22T23:39:11.728Z,9.25
2022-08-22T23:41:40.482Z,9.40
2022-08-22T23:44:13.504Z,9.65
2022-08-22T23:46:42.404Z,8.95
2022-08-22T23:49:10.014Z,9.23
2022-08-22T23:51:37.529Z,9.73
2022-08-22T23:54:05.941Z,8.68
2022-08-22T23:56:37.635Z,8.98
2022-08-22T23:59:09.125Z,8.50
